1852 NOT_NAMED (1852021S14075)


IBTrACS version v04r00. Visit IBTrACS website for data access.
Please direct all questions to the IBTrACS Q and A forum

Storm track - Intensity - Wind Radii - Intensity Data - Source Data - All data

Summary Information

Storm ID 1852021S14075
Start Jan 21 06Z
End Jan 30 06Z
ATCF IDs
Track status Best track data.

Storm track plot

Map of storm track

Intensity plots

No Intensity information for this storm


Radial wind information

No radial wind information for this storm


Position and Intensity Table

BASIN ISO_TIME_________ NATURE LAT LON
degrees north degrees east
SI 1852-01-21 06:00:00 NR -13.80 75.25
SI 09:00:00 NR -13.91 75.04
SI 12:00:00 NR -14.02 74.84
SI 15:00:00 NR -14.13 74.64
SI 18:00:00 NR -14.22 74.46
SI 21:00:00 NR -14.29 74.30
SI 1852-01-22 00:00:00 NR -14.36 74.13
SI 03:00:00 NR -14.42 73.96
SI 06:00:00 NR -14.50 73.75
SI 09:00:00 NR -14.59 73.50
SI 12:00:00 NR -14.69 73.21
SI 15:00:00 NR -14.81 72.89
SI 18:00:00 NR -14.92 72.55
SI 21:00:00 NR -15.05 72.19
SI 1852-01-23 00:00:00 NR -15.18 71.81
SI 03:00:00 NR -15.31 71.41
SI 06:00:00 NR -15.45 71.00
SI 09:00:00 NR -15.58 70.59
SI 12:00:00 NR -15.71 70.17
SI 15:00:00 NR -15.84 69.73
SI 18:00:00 NR -15.98 69.26
SI 21:00:00 NR -16.15 68.75
SI 1852-01-24 00:00:00 NR -16.32 68.22
SI 03:00:00 NR -16.49 67.70
SI 06:00:00 NR -16.65 67.20
SI 09:00:00 NR -16.79 66.76
SI 12:00:00 NR -16.92 66.34
SI 15:00:00 NR -17.05 65.94
SI 18:00:00 NR -17.17 65.53
SI 21:00:00 NR -17.30 65.11
SI 1852-01-25 00:00:00 NR -17.42 64.69
SI 03:00:00 NR -17.55 64.25
SI 06:00:00 NR -17.70 63.80
SI 09:00:00 NR -17.86 63.30
SI 12:00:00 NR -18.04 62.77
SI 15:00:00 NR -18.22 62.24
SI 18:00:00 NR -18.41 61.72
SI 21:00:00 NR -18.58 61.24
SI 1852-01-26 00:00:00 NR -18.76 60.79
SI 03:00:00 NR -18.97 60.34
SI 06:00:00 NR -19.20 59.90
SI 09:00:00 NR -19.47 59.42
SI 12:00:00 NR -19.77 58.94
SI 15:00:00 NR -20.10 58.49
SI 18:00:00 NR -20.47 58.09
SI 21:00:00 NR -20.87 57.74
SI 1852-01-27 00:00:00 NR -21.31 57.46
SI 03:00:00 NR -21.75 57.22
SI 06:00:00 NR -22.20 57.05
SI 09:00:00 NR -22.61 56.91
SI 12:00:00 NR -23.03 56.84
SI 15:00:00 NR -23.44 56.81
SI 18:00:00 NR -23.86 56.81
SI 21:00:00 NR -24.29 56.82
SI 1852-01-28 00:00:00 NR -24.72 56.86
SI 03:00:00 NR -25.16 56.92
SI 06:00:00 NR -25.60 57.00
SI 09:00:00 NR -26.08 57.07
SI 12:00:00 NR -26.57 57.16
SI 15:00:00 NR -27.05 57.27
SI 18:00:00 NR -27.51 57.38
SI 21:00:00 NR -27.94 57.50
SI 1852-01-29 00:00:00 NR -28.35 57.60
SI 03:00:00 NR -28.73 57.69
SI 06:00:00 NR -29.08 57.76
SI 09:00:00 NR -29.36 57.79
SI 12:00:00 NR -29.57 57.87
SI 15:00:00 NR -29.73 57.94
SI 18:00:00 NR -29.85 58.00
SI 21:00:00 NR -29.94 58.06
SI 1852-01-30 00:00:00 NR -30.01 58.11
SI 03:00:00 NR -30.06 58.15
SI 06:00:00 NR -30.10 58.20

Source Information

Agency Information
USA
TOKYO
CMA
HKO
NEWDELHI
REUNION WMO-Best-Tracks.txt:Line=60:xxxx852009
BOM
NADI
WELLINGTON
DS824
TD9636 cons_worldwide_trop_cyclone_18710101-19891231-005:Line=78
TD9635
NEUMANN
MLC

All available IBTrACS Data

SEASON BASIN SUBBASIN ISO_TIME_________ NATURE LAT LON WMO AGENCY DIST2LAND LANDFALL IFLAG USA SSHS REUNION LAT REUNION LON REUNION TYPE REUNION TNUM TD9636 LAT TD9636 LON TD9636 STAGE STORM SPEED STORM DIR
Year degrees north degrees east km km 1 degrees north degrees east 1 degrees north degrees east kts degrees
1852 SI MM 1852-01-21 06:00:00 NR -13.80 75.25 reunion 1996 1971 _____O____O___ -1 -13.60 75.60 99 9.90 -14.00 74.90 7 5 240
1852 SI MM 09:00:00 NR -13.91 75.04 1961 1937 _____P____P___ -1 -13.66 75.51 99 -14.17 74.57 7 5 241
1852 SI MM 12:00:00 NR -14.02 74.84 1937 1923 _____P____P___ -1 -13.71 75.42 99 -14.34 74.25 7 4 241
1852 SI MM 15:00:00 NR -14.13 74.64 1913 1899 _____P____P___ -1 -13.77 75.33 99 -14.48 73.96 7 4 242
1852 SI MM 18:00:00 NR -14.22 74.46 1899 1874 _____P____O___ -1 -13.83 75.22 99 -14.60 73.70 7 4 244
1852 SI MM 21:00:00 NR -14.29 74.30 1874 1850 _____P____P___ -1 -13.89 75.11 99 -14.69 73.48 7 3 246
1852 SI MM 1852-01-22 00:00:00 NR -14.36 74.13 1850 1840 _____P____P___ -1 -13.96 74.99 99 -14.76 73.28 7 4 248
1852 SI MM 03:00:00 NR -14.42 73.96 1840 1816 _____P____P___ -1 -14.03 74.85 99 -14.82 73.06 7 4 249
1852 SI MM 06:00:00 NR -14.50 73.75 reunion 1816 1782 _____O____O___ -1 -14.10 74.70 99 9.90 -14.90 72.80 7 5 249
1852 SI MM 09:00:00 NR -14.59 73.50 1782 1748 _____P____P___ -1 -14.18 74.53 99 -15.01 72.46 7 6 250
1852 SI MM 12:00:00 NR -14.69 73.21 1748 1714 _____P____P___ -1 -14.26 74.34 99 -15.13 72.07 7 6 250
1852 SI MM 15:00:00 NR -14.81 72.89 1714 1680 _____P____P___ -1 -14.35 74.13 99 -15.26 71.65 7 7 250
1852 SI MM 18:00:00 NR -14.92 72.55 1670 1636 _____P____O___ -1 -14.45 73.89 99 -15.40 71.20 7 7 250
1852 SI MM 21:00:00 NR -15.05 72.19 1636 1587 _____P____P___ -1 -14.55 73.64 99 -15.55 70.75 7 8 250
1852 SI MM 1852-01-23 00:00:00 NR -15.18 71.81 1587 1544 _____P____P___ -1 -14.66 73.35 99 -15.70 70.27 7 8 250
1852 SI MM 03:00:00 NR -15.31 71.41 1544 1500 _____P____P___ -1 -14.77 73.04 99 -15.85 69.79 7 8 251
1852 SI MM 06:00:00 NR -15.45 71.00 reunion 1500 1452 _____O____O___ -1 -14.90 72.70 99 9.90 -16.00 69.30 7 8 252
1852 SI MM 09:00:00 NR -15.58 70.59 1452 1408 _____P____P___ -1 -15.03 72.35 99 -16.12 68.84 7 8 252
1852 SI MM 12:00:00 NR -15.71 70.17 1408 1364 _____P____P___ -1 -15.17 71.96 99 -16.24 68.37 7 9 252
1852 SI MM 15:00:00 NR -15.84 69.73 1354 1306 _____P____P___ -1 -15.32 71.56 99 -16.36 67.90 7 9 252
1852 SI MM 18:00:00 NR -15.98 69.26 1306 1253 _____P____O___ -1 -15.47 71.12 99 -16.50 67.40 7 10 252
1852 SI MM 21:00:00 NR -16.15 68.75 1253 1195 _____P____P___ -1 -15.63 70.67 99 -16.67 66.84 7 11 252
1852 SI MM 1852-01-24 00:00:00 NR -16.32 68.22 1185 1127 _____P____P___ -1 -15.78 70.19 99 -16.85 66.26 7 11 251
1852 SI MM 03:00:00 NR -16.49 67.70 1127 1074 _____P____P___ -1 -15.94 69.70 99 -17.03 65.70 7 10 251
1852 SI MM 06:00:00 NR -16.65 67.20 reunion 1074 1026 _____O____O___ -1 -16.10 69.20 99 9.90 -17.20 65.20 7 10 251
1852 SI MM 09:00:00 NR -16.79 66.76 1026 982 _____P____P___ -1 -16.24 68.71 99 -17.34 64.81 7 9 252
1852 SI MM 12:00:00 NR -16.92 66.34 973 939 _____P____P___ -1 -16.37 68.21 99 -17.47 64.47 7 8 252
1852 SI MM 15:00:00 NR -17.05 65.94 929 891 _____P____P___ -1 -16.51 67.70 99 -17.59 64.18 7 8 252
1852 SI MM 18:00:00 NR -17.17 65.53 881 838 _____P____O___ -1 -16.65 67.17 99 -17.70 63.90 7 8 253
1852 SI MM 21:00:00 NR -17.30 65.11 838 795 _____P____P___ -1 -16.79 66.62 99 -17.80 63.60 7 8 253
1852 SI MM 1852-01-25 00:00:00 NR -17.42 64.69 795 752 _____P____P___ -1 -16.95 66.06 99 -17.89 63.31 7 9 253
1852 SI MM 03:00:00 NR -17.55 64.25 747 694 _____P____P___ -1 -17.12 65.49 99 -17.99 63.02 7 9 252
1852 SI MM 06:00:00 NR -17.70 63.80 reunion 694 637 _____O____O___ -1 -17.30 64.90 99 9.90 -18.10 62.70 7 10 251
1852 SI MM 09:00:00 NR -17.86 63.30 637 584 _____P____P___ -1 -17.48 64.26 99 -18.24 62.33 7 10 251
1852 SI MM 12:00:00 NR -18.04 62.77 584 527 _____P____P___ -1 -17.68 63.59 99 -18.39 61.95 7 11 250
1852 SI MM 15:00:00 NR -18.22 62.24 518 470 _____P____P___ -1 -17.89 62.92 99 -18.55 61.57 7 11 250
1852 SI MM 18:00:00 NR -18.41 61.72 460 413 _____P____O___ -1 -18.11 62.25 99 -18.70 61.20 7 10 249
1852 SI MM 21:00:00 NR -18.58 61.24 403 356 _____P____P___ -1 -18.35 61.58 99 -18.81 60.90 7 10 248
1852 SI MM 1852-01-26 00:00:00 NR -18.76 60.79 356 308 _____P____P___ -1 -18.61 60.95 99 -18.91 60.62 7 9 246
1852 SI MM 03:00:00 NR -18.97 60.34 298 251 _____P____P___ -1 -18.90 60.35 99 -19.04 60.33 7 9 242
1852 SI MM 06:00:00 NR -19.20 59.90 reunion 251 194 _____O____O___ -1 -19.20 59.80 99 9.90 -19.20 60.00 7 10 240
1852 SI MM 09:00:00 NR -19.47 59.42 189 142 _____P____P___ -1 -19.53 59.28 99 -19.40 59.56 7 11 238
1852 SI MM 12:00:00 NR -19.77 58.94 127 76 _____P____P___ -1 -19.88 58.80 99 -19.65 59.09 7 11 234
1852 SI MM 15:00:00 NR -20.10 58.49 76 33 _____P____P___ -1 -20.25 58.36 99 -19.95 58.62 7 11 229
1852 SI MM 18:00:00 NR -20.47 58.09 38 23 _____P____O___ -1 -20.64 57.97 99 -20.30 58.20 7 10 222
1852 SI MM 21:00:00 NR -20.87 57.74 44 44 _____P____P___ -1 -21.05 57.63 99 -20.70 57.86 7 10 215
1852 SI MM 1852-01-27 00:00:00 NR -21.31 57.46 89 89 _____P____P___ -1 -21.46 57.33 99 -21.15 57.58 7 10 209
1852 SI MM 03:00:00 NR -21.75 57.22 145 145 _____P____P___ -1 -21.88 57.09 99 -21.63 57.36 7 10 203
1852 SI MM 06:00:00 NR -22.20 57.05 reunion 167 159 _____O____O___ -1 -22.30 56.90 99 9.90 -22.10 57.20 7 9 198
1852 SI MM 09:00:00 NR -22.61 56.91 184 184 _____P____P___ -1 -22.70 56.75 99 -22.53 57.08 7 9 194
1852 SI MM 12:00:00 NR -23.03 56.84 216 216 _____P____P___ -1 -23.10 56.66 99 -22.95 57.02 7 8 187
1852 SI MM 15:00:00 NR -23.44 56.81 255 255 _____P____P___ -1 -23.51 56.61 99 -23.37 57.00 7 8 0
1852 SI MM 18:00:00 NR -23.86 56.81 305 305 _____P____O___ -1 -23.92 56.62 99 -23.80 57.00 7 9 178
1852 SI MM 21:00:00 NR -24.29 56.82 346 346 _____P____P___ -1 -24.33 56.66 99 -24.24 56.99 7 9 176
1852 SI MM 1852-01-28 00:00:00 NR -24.72 56.86 392 392 _____P____P___ -1 -24.75 56.72 99 -24.68 57.01 7 9 174
1852 SI MM 03:00:00 NR -25.16 56.92 444 444 _____P____P___ -1 -25.17 56.81 99 -25.14 57.04 7 9 172
1852 SI MM 06:00:00 NR -25.60 57.00 reunion 490 490 _____O____O___ -1 -25.60 56.90 99 9.90 -25.60 57.10 7 9 172
1852 SI MM 09:00:00 NR -26.08 57.07 546 546 _____P____P___ -1 -26.08 56.97 99 -26.08 57.17 7 10 172
1852 SI MM 12:00:00 NR -26.57 57.16 603 603 _____P____P___ -1 -26.56 57.05 99 -26.57 57.27 7 10 170
1852 SI MM 15:00:00 NR -27.05 57.27 649 649 _____P____P___ -1 -27.05 57.15 99 -27.05 57.38 7 10 168
1852 SI MM 18:00:00 NR -27.51 57.38 705 705 _____P____O___ -1 -27.52 57.26 99 -27.50 57.50 7 9 167
1852 SI MM 21:00:00 NR -27.94 57.50 751 751 _____P____P___ -1 -27.98 57.37 99 -27.91 57.62 7 9 167
1852 SI MM 1852-01-29 00:00:00 NR -28.35 57.60 807 807 _____P____P___ -1 -28.40 57.49 99 -28.29 57.75 7 8 168
1852 SI MM 03:00:00 NR -28.73 57.69 842 842 _____P____P___ -1 -28.77 57.60 99 -28.65 57.87 7 7 169
1852 SI MM 06:00:00 NR -29.08 57.76 reunion 888 888 _____O____O___ -1 -29.10 57.70 99 9.90 -29.00 58.00 7 6 172
1852 SI MM 09:00:00 NR -29.36 57.79 920 920 _____P________ -1 -29.36 57.79 99 7 5 169
1852 SI MM 12:00:00 NR -29.57 57.87 944 944 _____P________ -1 -29.57 57.87 99 7 4 161
1852 SI MM 15:00:00 NR -29.73 57.94 955 955 _____P________ -1 -29.73 57.94 99 7 3 158
1852 SI MM 18:00:00 NR -29.85 58.00 979 979 _____P________ -1 -29.85 58.00 99 2 154
1852 SI MM 21:00:00 NR -29.94 58.06 981 981 _____P________ -1 -29.94 58.06 99 2 151
1852 SI MM 1852-01-30 00:00:00 NR -30.01 58.11 992 992 _____P________ -1 -30.01 58.11 99 1 147
1852 SI MM 03:00:00 NR -30.06 58.15 1005 1005 _____P________ -1 -30.06 58.15 99 1 140
1852 SI MM 06:00:00 NR -30.10 58.20 reunion 1005 _____O________ -1 -30.10 58.20 99 9.90 1 138